Time;durP1;ratioP1;P1;durP2;ratioP2;P2;SDS_P1;SDS_P2;PMS_P1;PMS_P2;Temp;Humidity;BMP_temperature;BMP_pressure;BME280_temperature;BME280_humidity;BME280_pressure;Samples;Min_cycle;Max_cycle;Signal;HPM_P1;HPM_P2
2023/06/07 00:01:08;;;;;;;12.83;6.40;;;12.80;1.00;;;;;;5071375;28;20171;-69
2023/06/07 00:03:36;;;;;;;13.77;6.17;;;12.70;1.00;;;;;;5072319;28;20235;-71
2023/06/07 00:06:01;;;;;;;14.47;5.83;;;12.70;99.90;;;;;;5056297;28;20825;-70
2023/06/07 00:08:31;;;;;;;10.43;6.10;;;12.60;1.00;;;;;;5051226;28;20422;-71
2023/06/07 00:10:57;;;;;;;14.17;6.30;;;12.60;1.00;;;;;;5071203;28;20217;-71
2023/06/07 00:13:24;;;;;;;12.00;5.90;;;12.50;1.00;;;;;;5072318;28;20919;-70
2023/06/07 00:15:50;;;;;;;20.17;6.07;;;12.50;1.00;;;;;;5072316;28;20385;-70
2023/06/07 00:18:16;;;;;;;8.50;5.77;;;12.50;1.00;;;;;;5075780;28;20463;-70
2023/06/07 00:20:45;;;;;;;7.00;4.93;;;12.50;1.00;;;;;;5075234;28;20713;-70
2023/06/07 00:23:13;;;;;;;8.50;6.23;;;12.40;1.00;;;;;;5074068;28;20448;-70
2023/06/07 00:25:40;;;;;;;11.10;6.83;;;12.40;1.00;;;;;;5075264;28;20383;-71
2023/06/07 00:28:05;;;;;;;11.40;6.10;;;12.40;1.00;;;;;;5073694;28;20447;-70
2023/06/07 00:30:31;;;;;;;11.93;6.20;;;12.40;1.00;;;;;;5072902;28;20960;-70
2023/06/07 00:32:57;;;;;;;12.20;6.10;;;12.30;1.00;;;;;;5055566;28;20590;-71
2023/06/07 00:35:23;;;;;;;14.83;6.00;;;12.30;1.00;;;;;;5055537;28;20171;-70
2023/06/07 00:37:48;;;;;;;13.53;6.57;;;12.20;1.00;;;;;;5061803;28;20227;-71
2023/06/07 00:40:14;;;;;;;9.90;5.90;;;12.20;1.00;;;;;;5074586;28;20170;-71
2023/06/07 00:42:40;;;;;;;10.63;6.20;;;12.10;1.00;;;;;;5075207;28;20231;-70
2023/06/07 00:45:06;;;;;;;12.27;6.20;;;12.10;1.00;;;;;;5074094;28;20182;-70
2023/06/07 00:47:33;;;;;;;15.17;6.00;;;12.10;1.00;;;;;;5074821;28;20390;-70
2023/06/07 00:49:59;;;;;;;13.03;6.60;;;12.00;1.00;;;;;;5075046;28;20718;-71
2023/06/07 00:52:26;;;;;;;12.83;6.83;;;12.00;1.00;;;;;;5072623;28;20438;-70
2023/06/07 00:54:52;;;;;;;11.10;5.83;;;12.00;1.00;;;;;;5073535;28;20524;-71
2023/06/07 00:57:18;;;;;;;13.53;6.20;;;12.00;1.00;;;;;;5055124;28;20391;-69
2023/06/07 00:59:45;;;;;;;11.67;6.00;;;11.90;1.00;;;;;;5054916;28;20404;-70
2023/06/07 01:02:14;;;;;;;12.23;6.13;;;11.90;1.00;;;;;;5053571;28;20480;-71
2023/06/07 01:04:40;;;;;;;8.60;5.07;;;11.90;1.00;;;;;;5054933;28;20410;-69
2023/06/07 01:07:07;;;;;;;9.50;5.53;;;11.90;1.00;;;;;;5066448;28;20925;-71
2023/06/07 01:09:34;;;;;;;11.47;5.47;;;11.90;1.00;;;;;;5073722;28;20410;-72
2023/06/07 01:12:01;;;;;;;13.97;6.80;;;11.90;1.00;;;;;;5073863;28;20451;-69
2023/06/07 01:14:30;;;;;;;12.93;6.00;;;11.80;1.00;;;;;;5067241;28;20436;-70
2023/06/07 01:16:57;;;;;;;16.60;6.53;;;11.80;1.00;;;;;;5068624;28;20451;-71
2023/06/07 01:19:28;;;;;;;11.50;5.57;;;11.80;1.00;;;;;;5072384;28;20429;-71
2023/06/07 01:22:05;;;;;;;13.47;5.93;;;11.70;1.00;;;;;;5071453;28;20920;-70
2023/06/07 01:24:31;;;;;;;8.67;5.43;;;11.70;1.00;;;;;;5073605;28;20505;-70
2023/06/07 01:26:57;;;;;;;17.13;7.77;;;11.70;1.00;;;;;;5074289;28;20370;-71
2023/06/07 01:29:25;;;;;;;12.83;5.50;;;11.60;1.00;;;;;;5074638;28;20407;-70
2023/06/07 01:31:53;;;;;;;14.57;5.77;;;11.60;1.00;;;;;;5073374;28;20533;-70
2023/06/07 01:34:20;;;;;;;13.50;5.90;;;11.60;1.00;;;;;;5061526;28;20947;-70
2023/06/07 01:36:47;;;;;;;12.83;5.40;;;11.50;1.00;;;;;;5054505;28;20379;-69
2023/06/07 01:39:14;;;;;;;11.00;5.93;;;11.50;1.00;;;;;;5063720;28;20407;-70
2023/06/07 01:41:42;;;;;;;7.60;6.20;;;11.50;1.00;;;;;;5073194;28;20375;-70
2023/06/07 01:44:08;;;;;;;6.53;5.83;;;11.40;1.00;;;;;;5074006;28;20415;-70
2023/06/07 01:46:35;;;;;;;15.63;6.20;;;11.30;1.00;;;;;;5073910;28;20476;-69
2023/06/07 01:49:03;;;;;;;12.37;6.10;;;11.30;1.00;;;;;;5062311;28;20419;-71
2023/06/07 01:51:29;;;;;;;13.67;5.50;;;11.30;1.00;;;;;;5053938;28;22265;-70
2023/06/07 01:53:55;;;;;;;16.20;7.30;;;11.30;1.00;;;;;;5072950;28;20446;-71
2023/06/07 01:56:25;;;;;;;26.60;6.47;;;11.30;1.00;;;;;;5073879;28;20495;-70
2023/06/07 01:59:00;;;;;;;11.50;6.53;;;11.30;1.00;;;;;;5073348;28;20371;-70
2023/06/07 02:01:45;;;;;;;18.97;6.07;;;11.30;1.00;;;;;;5073077;28;20382;-70
2023/06/07 02:04:16;;;;;;;11.90;5.77;;;11.30;1.00;;;;;;5058713;28;20454;-70
2023/06/07 02:06:44;;;;;;;16.50;6.53;;;11.30;1.00;;;;;;5067471;28;20435;-69
2023/06/07 02:09:13;;;;;;;8.50;5.50;;;11.30;1.00;;;;;;5073308;28;20371;-71
2023/06/07 02:11:40;;;;;;;15.83;6.80;;;11.30;1.00;;;;;;5072723;28;20448;-70
2023/06/07 02:14:07;;;;;;;15.70;7.40;;;11.30;1.00;;;;;;5073244;28;20394;-71
2023/06/07 02:16:36;;;;;;;11.10;6.77;;;11.30;1.00;;;;;;5073253;28;20393;-70
2023/06/07 02:19:06;;;;;;;14.70;6.80;;;11.40;1.00;;;;;;5072713;28;20387;-71
2023/06/07 02:21:36;;;;;;;12.33;6.43;;;11.50;1.00;;;;;;5072741;28;20767;-71
2023/06/07 02:24:05;;;;;;;20.07;7.83;;;11.50;1.00;;;;;;5072911;28;20395;-71
2023/06/07 02:26:35;;;;;;;17.93;6.90;;;11.60;1.00;;;;;;5073405;28;20386;-70
2023/06/07 02:29:02;;;;;;;14.63;7.73;;;11.60;1.00;;;;;;5073451;28;20446;-72
2023/06/07 02:31:28;;;;;;;16.13;6.33;;;11.60;1.00;;;;;;5072490;28;20410;-69
2023/06/07 02:33:53;;;;;;;16.40;7.37;;;11.60;1.00;;;;;;5070333;28;20433;-69
2023/06/07 02:36:24;;;;;;;18.30;7.07;;;11.60;1.00;;;;;;5073251;28;20162;-70
2023/06/07 02:38:50;;;;;;;16.67;7.70;;;11.60;1.00;;;;;;5072822;28;20154;-71
2023/06/07 02:41:15;;;;;;;21.80;7.87;;;11.50;1.00;;;;;;5072278;28;20459;-70
2023/06/07 02:43:43;;;;;;;20.67;7.07;;;11.50;1.00;;;;;;5073050;28;20213;-70
2023/06/07 02:46:08;;;;;;;17.87;8.10;;;11.50;1.00;;;;;;5073284;28;20227;-70
2023/06/07 02:48:34;;;;;;;13.80;7.00;;;11.50;1.00;;;;;;5071541;28;20489;-70
2023/06/07 02:51:00;;;;;;;20.53;9.63;;;11.60;1.00;;;;;;5071654;28;20272;-70
2023/06/07 02:53:27;;;;;;;17.77;7.33;;;11.60;1.00;;;;;;5068994;28;20191;-71
2023/06/07 02:55:53;;;;;;;14.63;8.17;;;11.60;1.00;;;;;;5053029;28;20374;-71
2023/06/07 02:58:18;;;;;;;12.07;6.80;;;11.60;1.00;;;;;;5052927;28;20390;-71
2023/06/07 03:00:49;;;;;;;11.40;7.37;;;11.60;1.00;;;;;;5053389;28;20198;-71
2023/06/07 03:03:16;;;;;;;17.80;8.23;;;11.60;1.00;;;;;;5072885;28;20192;-68
2023/06/07 03:05:46;;;;;;;13.20;8.03;;;11.60;1.00;;;;;;5072991;28;20387;-71
2023/06/07 03:08:12;;;;;;;20.60;8.33;;;11.50;1.00;;;;;;5068874;28;20387;-70
2023/06/07 03:10:38;;;;;;;12.57;7.47;;;11.60;1.00;;;;;;5065778;28;20466;-70
2023/06/07 03:13:04;;;;;;;12.47;7.97;;;11.50;1.00;;;;;;5072755;28;20399;-71
2023/06/07 03:15:29;;;;;;;16.27;7.87;;;11.50;1.00;;;;;;5072455;28;20627;-69
2023/06/07 03:17:55;;;;;;;12.23;7.17;;;11.50;1.00;;;;;;5070829;28;20174;-71
2023/06/07 03:20:21;;;;;;;15.83;8.80;;;11.50;1.00;;;;;;5071121;28;20174;-70
2023/06/07 03:22:47;;;;;;;21.93;9.00;;;11.40;1.00;;;;;;5072702;28;20174;-70
2023/06/07 03:25:14;;;;;;;23.83;9.77;;;11.50;1.00;;;;;;5072426;28;20395;-69
2023/06/07 03:27:40;;;;;;;14.40;8.90;;;11.50;1.00;;;;;;5072694;28;20457;-71
2023/06/07 03:30:06;;;;;;;13.17;8.00;;;11.50;1.00;;;;;;5070317;28;20404;-74
2023/06/07 03:32:33;;;;;;;9.80;7.57;;;11.50;1.00;;;;;;5071606;28;20194;-69
2023/06/07 03:34:58;;;;;;;11.67;7.20;;;11.40;1.00;;;;;;5072582;28;20470;-70
2023/06/07 03:37:24;;;;;;;14.10;7.40;;;11.30;1.00;;;;;;5072886;28;20509;-71
2023/06/07 03:39:50;;;;;;;10.33;7.13;;;11.20;1.00;;;;;;5064673;28;20944;-71
2023/06/07 03:42:15;;;;;;;8.53;7.07;;;11.30;1.00;;;;;;5071817;28;20181;-71
2023/06/07 03:44:41;;;;;;;11.13;7.83;;;11.20;1.00;;;;;;5071567;28;20279;-69
2023/06/07 03:47:07;;;;;;;14.60;7.90;;;11.00;1.00;;;;;;5070157;28;20181;-70
2023/06/07 03:49:33;;;;;;;11.33;8.50;;;11.10;1.00;;;;;;5059678;28;20190;-70
2023/06/07 03:51:59;;;;;;;12.87;8.00;;;11.10;1.00;;;;;;5054937;28;20435;-69
2023/06/07 03:54:24;;;;;;;8.97;8.07;;;11.20;1.00;;;;;;5056234;28;20179;-69
2023/06/07 03:56:50;;;;;;;12.43;7.83;;;11.20;1.00;;;;;;5056221;28;20167;-71
2023/06/07 03:59:19;;;;;;;11.77;7.53;;;11.20;1.00;;;;;;5056163;28;20163;-69
2023/06/07 04:01:45;;;;;;;8.53;7.40;;;11.30;1.00;;;;;;5056317;28;20413;-69
2023/06/07 04:04:11;;;;;;;15.63;8.70;;;11.10;1.00;;;;;;5054758;28;20403;-71
2023/06/07 04:06:39;;;;;;;14.07;7.07;;;10.90;1.00;;;;;;5072988;28;20418;-69
2023/06/07 04:09:07;;;;;;;14.17;8.00;;;10.90;1.00;;;;;;5072786;28;20415;-70
2023/06/07 04:11:33;;;;;;;9.97;7.83;;;10.90;1.00;;;;;;5075026;28;20455;-71
2023/06/07 04:13:59;;;;;;;16.60;7.27;;;10.90;1.00;;;;;;5075873;28;20432;-69
2023/06/07 04:16:24;;;;;;;9.67;7.80;;;10.80;1.00;;;;;;5067754;28;20940;-70
2023/06/07 04:18:50;;;;;;;8.37;7.40;;;10.90;1.00;;;;;;5055947;28;20170;-71
2023/06/07 04:21:16;;;;;;;11.10;8.03;;;10.90;1.00;;;;;;5054597;28;20570;-72
2023/06/07 04:23:41;;;;;;;19.23;8.50;;;10.90;1.00;;;;;;5073667;28;20202;-72
2023/06/07 04:26:08;;;;;;;10.43;7.40;;;10.90;1.00;;;;;;5073985;28;20232;-71
2023/06/07 04:28:34;;;;;;;12.90;7.70;;;11.00;1.00;;;;;;5060154;28;20205;-69
2023/06/07 04:31:00;;;;;;;12.50;7.60;;;11.00;1.00;;;;;;5074629;28;20490;-71
2023/06/07 04:33:27;;;;;;;9.93;7.80;;;11.10;1.00;;;;;;5075558;28;20850;-70
2023/06/07 04:35:57;;;;;;;10.57;7.27;;;11.20;1.00;;;;;;5074291;28;20533;-69
2023/06/07 04:38:23;;;;;;;7.93;7.10;;;11.20;1.00;;;;;;5075428;28;20565;-69
2023/06/07 04:40:50;;;;;;;14.20;7.70;;;11.30;1.00;;;;;;5067777;28;20832;-69
2023/06/07 04:43:19;;;;;;;20.27;8.60;;;11.30;1.00;;;;;;5072116;28;20513;-72
2023/06/07 04:45:54;;;;;;;13.00;8.07;;;11.40;1.00;;;;;;5075297;28;20363;-72
2023/06/07 04:48:24;;;;;;;11.90;7.43;;;11.40;1.00;;;;;;5075331;28;20401;-71
2023/06/07 04:50:51;;;;;;;11.80;7.77;;;11.40;1.00;;;;;;5074336;28;20459;-72
2023/06/07 04:53:19;;;;;;;14.80;8.33;;;11.40;1.00;;;;;;5075082;28;20423;-71
2023/06/07 04:55:47;;;;;;;11.13;7.53;;;11.30;1.00;;;;;;5074001;28;20432;-69
2023/06/07 04:58:16;;;;;;;11.30;6.97;;;11.40;1.00;;;;;;5075177;28;20397;-71
2023/06/07 05:00:43;;;;;;;15.40;8.50;;;11.10;1.00;;;;;;5074320;28;20450;-71
2023/06/07 05:03:13;;;;;;;14.20;8.03;;;11.00;1.00;;;;;;5073679;28;20420;-71
2023/06/07 05:05:40;;;;;;;13.87;7.50;;;11.10;1.00;;;;;;5074864;28;20367;-71
2023/06/07 05:08:06;;;;;;;15.97;8.13;;;11.20;1.00;;;;;;5075070;28;20388;-71
2023/06/07 05:10:32;;;;;;;10.67;8.23;;;11.10;1.00;;;;;;5071704;28;20432;-72
2023/06/07 05:12:58;;;;;;;12.73;7.30;;;11.10;1.00;;;;;;5073961;28;20458;-71
2023/06/07 05:15:24;;;;;;;17.33;8.20;;;11.10;1.00;;;;;;5074922;28;20493;-71
2023/06/07 05:17:50;;;;;;;14.73;8.40;;;11.20;1.00;;;;;;5074648;28;20167;-71
2023/06/07 05:20:16;;;;;;;13.23;7.90;;;11.40;1.00;;;;;;5073182;28;20519;-71
2023/06/07 05:22:43;;;;;;;11.40;8.43;;;11.50;1.00;;;;;;5074731;28;20402;-71
2023/06/07 05:25:11;;;;;;;14.40;7.20;;;11.50;1.00;;;;;;5073669;28;20417;-71
2023/06/07 05:27:38;;;;;;;18.63;8.77;;;11.50;1.00;;;;;;5074469;28;20375;-71
2023/06/07 05:30:07;;;;;;;9.50;7.87;;;11.30;1.00;;;;;;5074210;28;20928;-74
2023/06/07 05:32:33;;;;;;;18.23;8.87;;;11.30;1.00;;;;;;5074281;28;20420;-72
2023/06/07 05:34:59;;;;;;;12.37;8.43;;;11.50;1.00;;;;;;5074406;28;20716;-70
2023/06/07 05:37:26;;;;;;;14.80;10.30;;;11.60;1.00;;;;;;5072962;28;20399;-71
2023/06/07 05:39:52;;;;;;;14.27;8.00;;;11.70;1.00;;;;;;5074015;28;20363;-71
2023/06/07 05:42:18;;;;;;;14.70;7.80;;;11.50;1.00;;;;;;5073566;28;20400;-71
2023/06/07 05:44:48;;;;;;;13.13;8.20;;;11.60;1.00;;;;;;5073033;28;20967;-70
2023/06/07 05:47:14;;;;;;;16.30;7.80;;;11.70;1.00;;;;;;5074226;28;20174;-71
2023/06/07 05:49:42;;;;;;;15.80;7.57;;;11.80;1.00;;;;;;5073271;28;20431;-71
2023/06/07 05:52:08;;;;;;;10.37;6.40;;;11.90;1.00;;;;;;5073162;28;20452;-69
2023/06/07 05:54:33;;;;;;;13.30;6.73;;;12.00;1.00;;;;;;5072599;28;20577;-69
2023/06/07 05:56:59;;;;;;;12.93;7.10;;;12.00;1.00;;;;;;5072063;28;20225;-71
2023/06/07 05:59:25;;;;;;;14.27;7.03;;;11.80;1.00;;;;;;5073268;28;20162;-70
2023/06/07 06:01:52;;;;;;;15.87;7.60;;;11.70;1.00;;;;;;5072952;28;20535;-70
2023/06/07 06:04:18;;;;;;;13.80;7.50;;;11.80;1.00;;;;;;5072411;28;20551;-69
2023/06/07 06:06:43;;;;;;;14.60;7.90;;;11.90;1.00;;;;;;5072634;28;20376;-70
2023/06/07 06:09:09;;;;;;;15.80;7.43;;;12.10;1.00;;;;;;5073705;28;20738;-67
2023/06/07 06:11:35;;;;;;;12.63;7.10;;;12.20;1.00;;;;;;5072765;28;20213;-71
2023/06/07 06:14:01;;;;;;;16.67;6.87;;;12.30;1.00;;;;;;5071453;28;20186;-69
2023/06/07 06:16:27;;;;;;;10.53;6.40;;;12.30;1.00;;;;;;5073548;28;20785;-69
2023/06/07 06:18:52;;;;;;;13.63;7.20;;;12.30;1.00;;;;;;5073642;28;20363;-68
2023/06/07 06:21:18;;;;;;;10.50;6.17;;;12.30;1.00;;;;;;5072711;28;20531;-69
2023/06/07 06:23:44;;;;;;;14.63;6.87;;;12.40;1.00;;;;;;5072662;28;20189;-68
2023/06/07 06:26:10;;;;;;;15.80;6.50;;;12.40;1.00;;;;;;5073413;28;20586;-69
2023/06/07 06:28:35;;;;;;;17.33;7.23;;;12.40;1.00;;;;;;5073432;28;20170;-69
2023/06/07 06:31:03;;;;;;;11.97;6.90;;;12.50;1.00;;;;;;5070527;28;20198;-70
2023/06/07 06:33:29;;;;;;;24.73;8.07;;;12.60;1.00;;;;;;5072805;28;20182;-68
2023/06/07 06:35:54;;;;;;;13.43;6.57;;;12.70;1.00;;;;;;5073310;28;20724;-69
2023/06/07 06:38:20;;;;;;;19.63;6.67;;;12.90;1.00;;;;;;5073218;28;20817;-69
2023/06/07 06:40:46;;;;;;;12.50;6.77;;;12.90;1.00;;;;;;5072550;28;20181;-68
2023/06/07 06:43:12;;;;;;;12.37;6.40;;;13.00;1.00;;;;;;5072040;28;20194;-68
2023/06/07 06:45:38;;;;;;;13.30;6.97;;;13.10;1.00;;;;;;5072397;28;20182;-69
2023/06/07 06:48:05;;;;;;;11.70;6.00;;;13.10;1.00;;;;;;5073194;28;20407;-69
2023/06/07 06:50:31;;;;;;;8.70;5.33;;;13.10;1.00;;;;;;5071645;28;20408;-68
2023/06/07 06:52:56;;;;;;;19.13;7.10;;;13.20;1.00;;;;;;5072903;28;20428;-69
2023/06/07 06:55:22;;;;;;;12.30;6.77;;;13.20;1.00;;;;;;5073265;28;20424;-69
2023/06/07 06:57:48;;;;;;;12.47;7.20;;;13.30;1.00;;;;;;5070593;28;20581;-68
2023/06/07 07:00:14;;;;;;;14.93;6.67;;;13.50;1.00;;;;;;5072145;28;20191;-70
2023/06/07 07:02:40;;;;;;;13.17;5.90;;;13.50;1.00;;;;;;5071708;28;20312;-69
2023/06/07 07:05:06;;;;;;;8.97;6.33;;;13.40;1.00;;;;;;5072975;28;20454;-68
2023/06/07 07:07:32;;;;;;;17.00;5.73;;;13.50;1.00;;;;;;5073032;28;20889;-69
2023/06/07 07:09:59;;;;;;;17.30;7.57;;;13.60;1.00;;;;;;5071022;28;20408;-69
2023/06/07 07:12:25;;;;;;;9.03;6.53;;;13.60;1.00;;;;;;5071580;28;20450;-69
2023/06/07 07:14:50;;;;;;;10.37;7.13;;;13.70;1.00;;;;;;5072897;28;20841;-69
2023/06/07 07:17:17;;;;;;;9.50;6.13;;;13.70;1.00;;;;;;5072864;28;20488;-69
2023/06/07 07:19:42;;;;;;;14.40;8.80;;;13.70;1.00;;;;;;5072808;28;20689;-68
2023/06/07 07:22:08;;;;;;;12.00;5.73;;;13.80;1.00;;;;;;5071924;28;20396;-68
2023/06/07 07:24:34;;;;;;;12.50;6.57;;;14.00;1.00;;;;;;5071255;28;20212;-69
2023/06/07 07:26:59;;;;;;;12.83;5.67;;;14.00;1.00;;;;;;5056175;28;20221;-69
2023/06/07 07:29:26;;;;;;;12.40;6.87;;;14.00;1.00;;;;;;5056311;28;20252;-67
2023/06/07 07:31:51;;;;;;;9.57;5.53;;;14.10;1.00;;;;;;5055853;28;20217;-68
2023/06/07 07:34:17;;;;;;;8.10;5.73;;;14.20;1.00;;;;;;5073469;28;20456;-71
2023/06/07 07:36:44;;;;;;;13.53;6.43;;;14.10;1.00;;;;;;5074373;28;20447;-68
2023/06/07 07:39:15;;;;;;;8.63;6.23;;;14.10;1.00;;;;;;5075729;28;20428;-68
2023/06/07 07:41:41;;;;;;;13.20;6.80;;;14.20;1.00;;;;;;5075326;28;20404;-67
2023/06/07 07:44:07;;;;;;;11.20;5.57;;;14.40;1.00;;;;;;5076512;28;20450;-67
2023/06/07 07:46:33;;;;;;;8.30;5.27;;;14.50;1.00;;;;;;5075778;28;20408;-68
2023/06/07 07:48:59;;;;;;;14.03;5.77;;;14.50;1.00;;;;;;5075549;28;20439;-67
2023/06/07 07:51:25;;;;;;;9.43;4.80;;;14.60;1.00;;;;;;5074939;28;20198;-68
2023/06/07 07:53:52;;;;;;;12.33;5.70;;;14.80;1.00;;;;;;5073610;28;20679;-69
2023/06/07 07:56:18;;;;;;;9.70;5.10;;;14.90;1.00;;;;;;5076391;28;20206;-67
2023/06/07 07:58:48;;;;;;;12.70;5.17;;;15.00;1.00;;;;;;5058542;28;20504;-67
2023/06/07 08:01:16;;;;;;;10.67;4.77;;;15.10;1.00;;;;;;5055312;28;20906;-68
2023/06/07 08:03:42;;;;;;;13.73;5.63;;;15.20;1.00;;;;;;5056148;28;20441;-68
2023/06/07 08:06:08;;;;;;;10.70;4.87;;;15.30;1.00;;;;;;5055267;28;20406;-67
2023/06/07 08:08:34;;;;;;;9.20;5.03;;;15.40;1.00;;;;;;5074983;28;20792;-67
2023/06/07 08:11:00;;;;;;;9.40;5.17;;;15.40;1.00;;;;;;5072873;28;20460;-67
2023/06/07 08:13:26;;;;;;;7.97;3.80;;;15.40;1.00;;;;;;5075748;28;20531;-67
2023/06/07 08:15:52;;;;;;;11.50;5.60;;;15.60;1.00;;;;;;5075831;28;20631;-66
2023/06/07 08:18:18;;;;;;;5.63;4.60;;;15.80;1.00;;;;;;5075596;28;20406;-66
2023/06/07 08:20:44;;;;;;;8.47;5.70;;;16.00;1.00;;;;;;5073350;28;20182;-67
2023/06/07 08:23:10;;;;;;;6.17;4.30;;;16.00;1.00;;;;;;5074153;28;20201;-68
2023/06/07 08:25:36;;;;;;;6.17;4.40;;;15.90;1.00;;;;;;5075823;28;20836;-68
2023/06/07 08:28:02;;;;;;;12.70;4.27;;;16.00;1.00;;;;;;5073744;28;20186;-66
2023/06/07 08:30:28;;;;;;;9.60;4.53;;;16.00;99.90;;;;;;5074688;28;20593;-68
2023/06/07 08:32:54;;;;;;;9.17;4.60;;;16.00;99.90;;;;;;5075658;28;20828;-68
2023/06/07 08:35:20;;;;;;;14.77;5.10;;;16.10;99.90;;;;;;5073518;28;20440;-68
2023/06/07 08:37:45;;;;;;;8.03;4.47;;;16.20;99.90;;;;;;5073023;28;20178;-69
2023/06/07 08:40:11;;;;;;;6.80;4.13;;;16.20;99.90;;;;;;5074150;28;20170;-68
2023/06/07 08:42:40;;;;;;;6.10;4.20;;;16.20;99.90;;;;;;5075311;28;20177;-66
2023/06/07 08:45:06;;;;;;;9.57;5.30;;;16.30;99.90;;;;;;5075159;28;20428;-68
2023/06/07 08:47:33;;;;;;;8.20;4.13;;;16.40;99.90;;;;;;5074406;28;20871;-67
2023/06/07 08:50:00;;;;;;;5.90;4.23;;;16.60;99.90;;;;;;5073931;28;20443;-66
2023/06/07 08:52:26;;;;;;;11.20;3.77;;;16.80;99.90;;;;;;5074222;28;20455;-68
2023/06/07 08:54:58;;;;;;;13.33;4.10;;;17.10;99.90;;;;;;5075303;28;20550;-66
2023/06/07 08:57:25;;;;;;;7.10;4.10;;;17.30;99.90;;;;;;5074959;28;20407;-68
2023/06/07 08:59:52;;;;;;;9.07;4.13;;;17.50;99.90;;;;;;5074545;28;20396;-67
2023/06/07 09:02:19;;;;;;;7.70;4.03;;;17.70;99.90;;;;;;5073359;28;20417;-68
2023/06/07 09:04:46;;;;;;;8.93;4.23;;;17.90;99.90;;;;;;5073688;28;20824;-65
2023/06/07 09:07:12;;;;;;;11.33;4.27;;;18.00;99.90;;;;;;5074850;28;20396;-66
2023/06/07 09:09:41;;;;;;;10.07;4.13;;;18.00;99.90;;;;;;5074953;28;20401;-67
2023/06/07 09:12:07;;;;;;;9.40;4.30;;;18.30;99.90;;;;;;5073934;28;20539;-66
2023/06/07 09:14:34;;;;;;;7.60;4.37;;;18.40;99.90;;;;;;5074408;28;20908;-66
2023/06/07 09:17:00;;;;;;;8.30;3.30;;;18.50;99.90;;;;;;5073742;28;20943;-68
2023/06/07 09:19:42;;;;;;;7.30;3.23;;;18.60;99.90;;;;;;5074687;28;20440;-68
2023/06/07 09:22:11;;;;;;;5.37;3.40;;;18.80;99.90;;;;;;5073833;28;20689;-68
2023/06/07 09:24:37;;;;;;;12.57;4.00;;;19.20;99.90;;;;;;5073293;28;20433;-66
2023/06/07 09:27:04;;;;;;;10.10;3.63;;;19.60;99.90;;;;;;5074676;28;20492;-68
2023/06/07 09:29:41;;;;;;;7.47;4.27;;;19.80;99.90;;;;;;5073320;28;20408;-69
2023/06/07 09:32:18;;;;;;;9.90;3.73;;;19.80;99.90;;;;;;5071008;28;20459;-66
2023/06/07 09:34:44;;;;;;;6.80;3.53;;;20.00;99.90;;;;;;5074346;28;20427;-66
2023/06/07 09:37:10;;;;;;;6.33;3.40;;;20.20;99.90;;;;;;5072197;28;20482;-68
2023/06/07 09:39:37;;;;;;;5.70;3.37;;;20.30;99.90;;;;;;5054312;28;20409;-68
2023/06/07 09:42:16;;;;;;;10.87;4.50;;;20.70;99.90;;;;;;5053388;28;20159;-66
2023/06/07 09:44:42;;;;;;;8.67;3.43;;;21.10;99.90;;;;;;5054049;28;20996;-65
2023/06/07 09:47:20;;;;;;;6.13;3.80;;;21.40;99.90;;;;;;5066981;28;20432;-67
2023/06/07 09:49:45;;;;;;;8.03;3.40;;;21.90;99.90;;;;;;5073377;28;20769;-66
2023/06/07 09:52:16;;;;;;;8.60;3.03;;;22.20;99.90;;;;;;5073142;28;20444;-67
2023/06/07 09:54:45;;;;;;;7.43;3.87;;;22.70;99.90;;;;;;5073927;28;20576;-66
2023/06/07 09:57:30;;;;;;;8.20;4.30;;;23.00;99.90;;;;;;5071905;28;20506;-67
2023/06/07 10:00:07;;;;;;;8.47;3.30;;;23.30;99.90;;;;;;5073565;28;20431;-66
2023/06/07 10:02:32;;;;;;;11.33;3.70;;;23.50;99.90;;;;;;5073741;28;20457;-66
2023/06/07 10:05:00;;;;;;;14.70;4.37;;;23.60;99.90;;;;;;5060813;28;20417;-66
2023/06/07 10:07:38;;;;;;;8.27;2.70;;;23.80;99.90;;;;;;5053201;28;20182;-65
2023/06/07 10:10:06;;;;;;;3.10;2.43;;;23.90;99.90;;;;;;5059740;28;20460;-70
2023/06/07 10:12:35;;;;;;;9.30;4.47;;;24.30;99.90;;;;;;5073396;28;20456;-65
2023/06/07 10:15:08;;;;;;;7.47;3.17;;;24.50;99.90;;;;;;5073759;28;20397;-67
2023/06/07 10:17:55;;;;;;;5.03;2.73;;;24.80;99.90;;;;;;5073645;28;20904;-67
2023/06/07 10:20:35;;;;;;;4.57;3.27;;;24.70;99.90;;;;;;5055120;28;20417;-69
2023/06/07 10:23:07;;;;;;;3.53;3.20;;;25.00;99.90;;;;;;5053129;28;20429;-67
2023/06/07 10:25:47;;;;;;;5.80;3.07;;;25.30;99.90;;;;;;5072264;28;20439;-65
2023/06/07 10:28:48;;;;;;;3.03;2.73;;;25.60;99.90;;;;;;5073376;28;20462;-70
2023/06/07 10:31:16;;;;;;;6.80;2.93;;;25.20;99.90;;;;;;5072055;28;20466;-66
2023/06/07 10:33:43;;;;;;;6.80;3.50;;;25.40;99.90;;;;;;5072807;28;20766;-70
2023/06/07 10:36:09;;;;;;;4.77;2.97;;;25.60;99.90;;;;;;5073210;28;20443;-70
2023/06/07 10:38:36;;;;;;;6.17;2.70;;;25.90;99.90;;;;;;5071462;28;20428;-68
2023/06/07 10:41:06;;;;;;;8.73;3.40;;;26.30;99.90;;;;;;5072018;28;20423;-72
2023/06/07 10:43:33;;;;;;;6.00;3.27;;;26.50;99.90;;;;;;5071257;28;20471;-68
2023/06/07 10:46:25;;;;;;;4.67;3.13;;;26.40;99.90;;;;;;5073045;28;20412;-71
2023/06/07 10:48:51;;;;;;;9.03;3.33;;;26.30;99.90;;;;;;5073241;28;20458;-67
2023/06/07 10:51:38;;;;;;;5.20;3.33;;;26.40;99.90;;;;;;5070791;28;20487;-71
2023/06/07 10:54:04;;;;;;;10.43;3.60;;;26.60;99.90;;;;;;5054775;28;20447;-69
2023/06/07 10:56:31;;;;;;;4.97;2.80;;;26.70;99.90;;;;;;5051784;28;20810;-68
2023/06/07 10:59:14;;;;;;;5.83;4.53;;;27.00;99.90;;;;;;5053042;28;20409;-71
2023/06/07 11:01:40;;;;;;;9.60;3.93;;;27.20;99.90;;;;;;5051093;28;20412;-69
2023/06/07 11:04:06;;;;;;;5.13;2.93;;;27.40;99.90;;;;;;5052680;28;20425;-71
2023/06/07 11:06:33;;;;;;;6.10;2.90;;;27.20;99.90;;;;;;5063952;28;20437;-70
2023/06/07 11:09:18;;;;;;;8.03;3.90;;;26.90;99.90;;;;;;5052875;28;20405;-71
2023/06/07 11:11:44;;;;;;;6.80;3.20;;;26.80;99.90;;;;;;5051943;28;20552;-71
2023/06/07 11:14:13;;;;;;;7.80;3.47;;;27.10;99.90;;;;;;5052623;28;20505;-68
2023/06/07 11:16:39;;;;;;;6.57;4.57;;;27.60;99.90;;;;;;5052883;28;20429;-68
2023/06/07 11:19:09;;;;;;;4.83;4.03;;;27.90;99.90;;;;;;5053013;28;20833;-68
2023/06/07 11:21:53;;;;;;;8.10;3.40;;;28.40;99.90;;;;;;5062093;28;20495;-71
2023/06/07 11:24:20;;;;;;;5.30;3.00;;;28.50;99.90;;;;;;5072613;28;20463;-70
2023/06/07 11:26:47;;;;;;;8.10;3.20;;;28.60;99.90;;;;;;5072677;28;20423;-70
2023/06/07 11:29:15;;;;;;;4.53;2.90;;;28.70;99.90;;;;;;5071570;28;20448;-68
2023/06/07 11:31:41;;;;;;;6.97;3.00;;;28.90;99.90;;;;;;5064930;28;20463;-71
2023/06/07 11:34:12;;;;;;;8.40;3.50;;;28.90;99.90;;;;;;5070032;28;20960;-71
2023/06/07 11:36:37;;;;;;;6.03;3.10;;;29.30;99.90;;;;;;5072636;28;20529;-69
2023/06/07 11:39:08;;;;;;;10.07;3.10;;;29.50;99.90;;;;;;5063487;28;20893;-69
2023/06/07 11:41:39;;;;;;;5.97;3.23;;;29.50;99.90;;;;;;5050496;28;20225;-71
2023/06/07 11:44:06;;;;;;;7.93;2.90;;;29.80;99.90;;;;;;5052442;28;20459;-72
2023/06/07 11:46:36;;;;;;;3.73;3.20;;;30.20;99.90;;;;;;5058384;28;20490;-72
2023/06/07 11:49:09;;;;;;;10.10;4.07;;;30.20;99.90;;;;;;5070905;28;20424;-72
2023/06/07 11:51:36;;;;;;;5.80;3.30;;;30.30;99.90;;;;;;5071498;28;20959;-69
2023/06/07 11:54:02;;;;;;;6.90;3.73;;;30.10;99.90;;;;;;5072470;28;20502;-70
2023/06/07 11:56:27;;;;;;;7.33;3.60;;;30.10;99.90;;;;;;5071283;28;20972;-72
2023/06/07 11:58:54;;;;;;;5.57;3.50;;;29.90;99.90;;;;;;5071698;28;20393;-72
2023/06/07 12:01:20;;;;;;;5.53;3.43;;;30.10;99.90;;;;;;5070784;28;20531;-72
2023/06/07 12:03:48;;;;;;;7.33;3.77;;;30.10;99.90;;;;;;5071146;28;20452;-68
2023/06/07 12:06:14;;;;;;;5.50;3.60;;;30.30;99.90;;;;;;5072392;28;20431;-71
2023/06/07 12:08:40;;;;;;;5.43;3.60;;;30.50;99.90;;;;;;5072435;28;20444;-72
2023/06/07 12:11:06;;;;;;;5.57;3.17;;;31.00;99.90;;;;;;5071955;28;20263;-70
2023/06/07 12:13:39;;;;;;;6.83;4.03;;;30.90;99.90;;;;;;5072446;28;20948;-69
2023/06/07 12:16:07;;;;;;;12.10;4.43;;;30.60;99.90;;;;;;5074727;28;20183;-71
2023/06/07 12:18:38;;;;;;;3.23;2.93;;;31.00;99.90;;;;;;5062131;28;20934;-72
2023/06/07 12:21:18;;;;;;;6.40;3.30;;;31.30;99.90;;;;;;5053561;28;20474;-68
2023/06/07 12:23:50;;;;;;;5.80;2.90;;;30.90;99.90;;;;;;5054504;28;20866;-71
2023/06/07 12:26:19;;;;;;;6.17;3.30;;;31.10;99.90;;;;;;5055758;28;20436;-70
2023/06/07 12:28:47;;;;;;;5.00;3.27;;;31.20;99.90;;;;;;5068893;28;20459;-72
2023/06/07 12:31:19;;;;;;;6.10;3.60;;;31.10;99.90;;;;;;5074277;28;20460;-69
2023/06/07 12:33:53;;;;;;;8.43;3.80;;;30.90;99.90;;;;;;5075357;28;20425;-71
2023/06/07 12:36:19;;;;;;;13.67;3.97;;;31.10;99.90;;;;;;5075203;28;20826;-69
2023/06/07 12:38:45;;;;;;;8.37;4.17;;;30.70;99.90;;;;;;5075585;28;20405;-71
2023/06/07 12:41:11;;;;;;;8.80;3.73;;;30.20;99.90;;;;;;5073708;28;20482;-70
2023/06/07 12:43:36;;;;;;;4.97;3.43;;;30.30;99.90;;;;;;5074290;28;20210;-71
2023/06/07 12:46:02;;;;;;;6.97;3.73;;;30.20;99.90;;;;;;5065309;28;20174;-70
2023/06/07 12:48:28;;;;;;;4.37;2.83;;;30.10;99.90;;;;;;5055417;28;20206;-70
2023/06/07 12:50:54;;;;;;;6.20;3.63;;;29.60;99.90;;;;;;5054414;28;20163;-69